createdAt,value
2023-01-17T00:00:56.000Z,17.8
2023-01-17T00:03:16.000Z,17.8
2023-01-17T00:04:26.778Z,17.8
2023-01-17T00:05:36.000Z,17.7
2023-01-17T00:06:47.001Z,17.7
2023-01-17T00:07:57.132Z,17.7
2023-01-17T00:09:06.000Z,17.7
2023-01-17T00:10:16.000Z,17.7
2023-01-17T00:11:26.000Z,17.7
2023-01-17T00:12:36.000Z,17.7
2023-01-17T00:14:56.000Z,17.7
2023-01-17T00:16:06.000Z,17.7
2023-01-17T00:17:17.000Z,17.7
2023-01-17T00:18:27.000Z,17.7
2023-01-17T00:19:37.307Z,17.7
2023-01-17T00:20:47.000Z,17.7
2023-01-17T00:21:57.000Z,17.7
2023-01-17T00:23:07.661Z,17.7
2023-01-17T00:24:16.797Z,17.7
2023-01-17T00:25:26.000Z,17.7
2023-01-17T00:26:37.000Z,17.7
2023-01-17T00:27:47.144Z,17.7
2023-01-17T00:28:57.000Z,17.7
2023-01-17T00:30:07.000Z,17.7
2023-01-17T00:31:17.000Z,17.7
2023-01-17T00:32:27.000Z,17.7
2023-01-17T00:33:37.726Z,17.6
2023-01-17T00:34:47.000Z,17.7
2023-01-17T00:35:57.965Z,17.6
2023-01-17T00:37:08.000Z,17.6
2023-01-17T00:38:18.000Z,17.6
2023-01-17T00:39:27.000Z,17.6
2023-01-17T00:40:37.000Z,17.6
2023-01-17T00:41:47.562Z,17.6
2023-01-17T00:42:57.679Z,17.6
2023-01-17T00:44:07.000Z,17.6
2023-01-17T00:45:17.000Z,17.6
2023-01-17T00:46:28.000Z,17.6
2023-01-17T00:47:38.000Z,17.6
2023-01-17T00:49:58.000Z,17.6
2023-01-17T00:51:08.000Z,17.6
2023-01-17T00:53:28.000Z,17.6
2023-01-17T00:54:37.000Z,17.6
2023-01-17T00:55:47.000Z,17.6
2023-01-17T00:56:58.000Z,17.6
2023-01-17T00:58:08.218Z,17.6
2023-01-17T00:59:18.336Z,17.6
2023-01-17T01:01:38.000Z,17.6
2023-01-17T01:02:47.000Z,17.6
2023-01-17T01:03:56.844Z,17.6
2023-01-17T01:05:06.000Z,17.6
2023-01-17T01:07:27.000Z,17.6
2023-01-17T01:08:37.000Z,17.6
2023-01-17T01:09:47.429Z,17.6
2023-01-17T01:10:57.000Z,17.6
2023-01-17T01:12:07.664Z,17.5
2023-01-17T01:13:17.787Z,17.5
2023-01-17T01:14:27.899Z,17.5
2023-01-17T01:17:58.263Z,17.5
2023-01-17T01:19:08.370Z,17.5
2023-01-17T01:20:17.510Z,17.5
2023-01-17T01:21:26.646Z,17.5
2023-01-17T01:22:36.776Z,17.5
2023-01-17T01:24:57.000Z,17.5
2023-01-17T01:26:07.111Z,17.5
2023-01-17T01:27:17.000Z,17.5
2023-01-17T01:28:27.000Z,17.5
2023-01-17T01:29:37.000Z,17.5
2023-01-17T01:30:47.000Z,17.5
2023-01-17T01:31:57.000Z,17.5
2023-01-17T01:33:07.813Z,17.5
2023-01-17T01:34:16.000Z,17.5
2023-01-17T01:35:27.000Z,17.5
2023-01-17T01:36:37.000Z,17.5
2023-01-17T01:37:47.305Z,17.5
2023-01-17T01:38:57.000Z,17.5
2023-01-17T01:40:07.000Z,17.5
2023-01-17T01:41:17.000Z,17.5
2023-01-17T01:43:37.897Z,17.5
2023-01-17T01:45:58.127Z,17.5
2023-01-17T01:48:18.355Z,17.5
2023-01-17T01:49:27.495Z,17.5
2023-01-17T01:50:37.608Z,17.5
2023-01-17T01:51:47.000Z,17.5
2023-01-17T01:52:57.839Z,17.5
2023-01-17T01:54:07.000Z,17.5
2023-01-17T01:56:28.000Z,17.5
2023-01-17T01:57:38.322Z,17.4
2023-01-17T01:59:58.000Z,17.4
2023-01-17T02:01:08.667Z,17.4
2023-01-17T02:02:18.000Z,17.4
2023-01-17T02:03:28.000Z,17.4
2023-01-17T02:04:38.032Z,17.4
2023-01-17T02:05:48.148Z,17.4
2023-01-17T02:06:58.000Z,17.4
2023-01-17T02:08:08.375Z,17.4
2023-01-17T02:09:18.000Z,17.4
2023-01-17T02:11:38.730Z,17.4
2023-01-17T02:12:48.000Z,17.4
2023-01-17T02:13:58.000Z,17.4
2023-01-17T02:15:09.083Z,17.4
2023-01-17T02:16:19.000Z,17.4
2023-01-17T02:17:29.317Z,17.4
2023-01-17T02:18:39.432Z,17.4
2023-01-17T02:19:48.566Z,17.4
2023-01-17T02:20:58.000Z,17.4
2023-01-17T02:23:18.000Z,17.4
2023-01-17T02:24:29.035Z,17.4
2023-01-17T02:25:39.147Z,17.4
2023-01-17T02:26:49.000Z,17.4
2023-01-17T02:27:59.384Z,17.4
2023-01-17T02:29:09.512Z,17.4
2023-01-17T02:30:19.000Z,17.4
2023-01-17T02:35:00.000Z,17.4
2023-01-17T02:36:09.223Z,17.4
2023-01-17T02:37:19.341Z,17.4
2023-01-17T02:38:29.000Z,17.4
2023-01-17T02:39:39.000Z,17.4
2023-01-17T02:40:49.697Z,17.4
2023-01-17T02:41:59.806Z,17.4
2023-01-17T02:43:09.920Z,17.4
2023-01-17T02:44:20.000Z,17.4
2023-01-17T02:45:30.000Z,17.4
2023-01-17T02:46:40.000Z,17.4
2023-01-17T02:47:50.388Z,17.4
2023-01-17T02:49:00.000Z,17.3
2023-01-17T02:50:10.000Z,17.3
2023-01-17T02:51:19.760Z,17.4
2023-01-17T02:52:29.000Z,17.3
2023-01-17T02:53:39.000Z,17.3
2023-01-17T02:54:50.000Z,17.3
2023-01-17T02:56:00.000Z,17.4
2023-01-17T02:57:10.000Z,17.3
2023-01-17T02:58:19.000Z,17.3
2023-01-17T02:59:28.000Z,17.3
2023-01-17T03:00:38.000Z,17.3
2023-01-17T03:01:48.850Z,17.3
2023-01-17T03:02:58.000Z,17.3
2023-01-17T03:04:09.000Z,17.3
2023-01-17T03:06:29.000Z,17.3
2023-01-17T03:07:39.000Z,17.3
2023-01-17T03:08:49.000Z,17.3
2023-01-17T03:09:59.670Z,17.3
2023-01-17T03:11:09.000Z,17.3
2023-01-17T03:13:30.000Z,17.3
2023-01-17T03:14:39.000Z,17.3
2023-01-17T03:15:48.000Z,17.3
2023-01-17T03:16:58.408Z,17.3
2023-01-17T03:18:08.534Z,17.3
2023-01-17T03:20:28.000Z,17.3
2023-01-17T03:21:38.000Z,17.3
2023-01-17T03:22:49.000Z,17.3
2023-01-17T03:23:59.115Z,17.3
2023-01-17T03:25:09.000Z,17.3
2023-01-17T03:26:19.000Z,17.3
2023-01-17T03:27:29.000Z,17.3
2023-01-17T03:28:39.000Z,17.2
2023-01-17T03:29:49.699Z,17.2
2023-01-17T03:30:58.000Z,17.2
2023-01-17T03:32:08.955Z,17.3
2023-01-17T03:33:19.000Z,17.2
2023-01-17T03:34:29.000Z,17.2
2023-01-17T03:35:39.297Z,17.2
2023-01-17T03:36:49.000Z,17.2
2023-01-17T03:37:59.530Z,17.2
2023-01-17T03:39:09.645Z,17.2
2023-01-17T03:40:19.000Z,17.2
2023-01-17T03:41:28.000Z,17.2
2023-01-17T03:42:38.000Z,17.2
2023-01-17T03:43:48.000Z,17.2
2023-01-17T03:44:58.000Z,17.2
2023-01-17T03:46:08.394Z,17.2
2023-01-17T03:47:18.000Z,17.2
2023-01-17T03:48:28.636Z,17.2
2023-01-17T03:49:38.000Z,17.2
2023-01-17T03:50:48.000Z,17.2
2023-01-17T03:51:58.975Z,17.2
2023-01-17T03:53:09.000Z,17.2
2023-01-17T03:54:18.000Z,17.2
2023-01-17T03:55:27.000Z,17.2
2023-01-17T03:56:37.489Z,17.2
2023-01-17T03:57:47.000Z,17.2
2023-01-17T03:58:57.000Z,17.2
2023-01-17T04:00:07.000Z,17.2
2023-01-17T04:01:17.000Z,17.2
2023-01-17T04:02:28.000Z,17.2
2023-01-17T04:03:38.000Z,17.2
2023-01-17T04:04:48.000Z,17.2
2023-01-17T04:05:58.000Z,17.2
2023-01-17T04:09:28.000Z,17.2
2023-01-17T04:10:37.913Z,17.2
2023-01-17T04:11:47.048Z,17.2
2023-01-17T04:12:57.170Z,17.2
2023-01-17T04:14:07.000Z,17.2
2023-01-17T04:15:17.402Z,17.2
2023-01-17T04:16:27.000Z,17.2
2023-01-17T04:17:37.000Z,17.2
2023-01-17T04:18:47.000Z,17.1
2023-01-17T04:19:57.873Z,17.1
2023-01-17T04:21:07.000Z,17.1
2023-01-17T04:23:28.228Z,17.1
2023-01-17T04:24:38.000Z,17.1
2023-01-17T04:25:48.000Z,17.1
2023-01-17T04:26:57.000Z,17.1
2023-01-17T04:28:07.702Z,17.1
2023-01-17T04:29:17.821Z,17.1
2023-01-17T04:30:27.949Z,17.1
2023-01-17T04:32:48.167Z,17.1
2023-01-17T04:33:57.310Z,17.1
2023-01-17T04:35:06.445Z,17.1
2023-01-17T04:36:16.561Z,17.1
2023-01-17T04:37:26.683Z,17.1
2023-01-17T04:38:36.000Z,17.1
2023-01-17T04:39:46.000Z,17.1
2023-01-17T04:40:57.035Z,17.1
2023-01-17T04:42:07.000Z,17.1
2023-01-17T04:43:17.000Z,17.1
2023-01-17T04:44:27.000Z,17.1
2023-01-17T04:45:37.000Z,17.1
2023-01-17T04:46:46.637Z,17.1
2023-01-17T04:47:55.000Z,17.1
2023-01-17T04:49:05.898Z,17.1
2023-01-17T04:50:16.005Z,17.1
2023-01-17T04:51:26.127Z,17.1
2023-01-17T04:52:36.000Z,17.1
2023-01-17T04:53:46.357Z,17.1
2023-01-17T04:54:56.478Z,17.1
2023-01-17T04:56:06.000Z,17.1
2023-01-17T04:57:16.000Z,17.1
2023-01-17T04:58:26.826Z,17.1
2023-01-17T04:59:36.000Z,17.1
2023-01-17T05:00:46.000Z,17.1
2023-01-17T05:01:55.216Z,17.1
2023-01-17T05:03:05.000Z,17.1
2023-01-17T05:04:15.448Z,17.1
2023-01-17T05:05:25.000Z,17
2023-01-17T05:06:35.688Z,17.1
2023-01-17T05:07:45.806Z,17.1
2023-01-17T05:08:55.921Z,17.1
2023-01-17T05:10:06.033Z,17.1
2023-01-17T05:12:26.268Z,17
2023-01-17T05:13:36.000Z,17
2023-01-17T05:14:46.000Z,17
2023-01-17T05:15:56.000Z,17
2023-01-17T05:17:05.000Z,17
2023-01-17T05:18:15.000Z,17
2023-01-17T05:19:25.000Z,17
2023-01-17T05:20:36.000Z,17
2023-01-17T05:21:46.231Z,17
2023-01-17T05:22:56.000Z,17
2023-01-17T05:24:06.461Z,17
2023-01-17T05:25:16.000Z,17
2023-01-17T05:26:26.689Z,17
2023-01-17T05:27:36.000Z,17
2023-01-17T05:29:56.000Z,17
2023-01-17T05:31:05.000Z,17
2023-01-17T05:32:15.000Z,17
2023-01-17T05:33:25.000Z,17
2023-01-17T05:34:35.547Z,17
2023-01-17T05:35:45.665Z,17
2023-01-17T05:36:55.000Z,17
2023-01-17T05:38:05.000Z,17
2023-01-17T05:39:16.000Z,17
2023-01-17T05:42:46.365Z,17
2023-01-17T05:43:55.506Z,17
2023-01-17T05:45:04.000Z,17
2023-01-17T05:46:14.000Z,17
2023-01-17T05:47:24.881Z,17
2023-01-17T05:48:34.000Z,17
2023-01-17T05:49:45.110Z,17
2023-01-17T05:50:55.229Z,17
2023-01-17T05:52:05.340Z,17
2023-01-17T05:53:15.000Z,16.9
2023-01-17T05:54:25.000Z,17
2023-01-17T05:55:35.000Z,16.9
2023-01-17T05:56:44.000Z,16.9
2023-01-17T05:57:53.971Z,16.9
2023-01-17T05:59:04.084Z,16.9
2023-01-17T06:00:14.210Z,16.9
2023-01-17T06:01:24.000Z,16.9
2023-01-17T06:03:44.553Z,16.9
2023-01-17T06:04:54.664Z,16.9
2023-01-17T06:06:04.786Z,16.9
2023-01-17T06:07:14.904Z,16.9
2023-01-17T06:08:25.018Z,16.9
2023-01-17T06:09:35.136Z,16.9
2023-01-17T06:10:45.250Z,17
2023-01-17T06:11:55.000Z,17
2023-01-17T06:13:04.000Z,17
2023-01-17T06:14:14.000Z,17
2023-01-17T06:15:24.000Z,17
2023-01-17T06:16:34.852Z,17
2023-01-17T06:17:44.000Z,17
2023-01-17T06:18:55.096Z,17
2023-01-17T06:20:05.203Z,17
2023-01-17T06:21:15.318Z,17
2023-01-17T06:22:25.441Z,17
2023-01-17T06:23:35.552Z,17
2023-01-17T06:24:45.679Z,17
2023-01-17T06:25:55.000Z,17
2023-01-17T06:27:05.000Z,17.1
2023-01-17T06:28:15.042Z,17.1
2023-01-17T06:29:25.161Z,17.1
2023-01-17T06:30:35.000Z,17.1
2023-01-17T06:31:45.386Z,17.1
2023-01-17T06:32:55.505Z,17.1
2023-01-17T06:34:05.618Z,17.1
2023-01-17T06:35:15.737Z,17.1
2023-01-17T06:36:25.865Z,17.1
2023-01-17T06:37:35.973Z,17.1
2023-01-17T06:39:56.000Z,17.2
2023-01-17T06:41:06.317Z,17.2
2023-01-17T06:42:16.449Z,17.2
2023-01-17T06:43:25.000Z,17.2
2023-01-17T06:44:35.703Z,17.2
2023-01-17T06:45:45.809Z,17.2
2023-01-17T06:48:06.000Z,17.3
2023-01-17T06:51:36.000Z,17.3
2023-01-17T06:52:45.000Z,17.3
2023-01-17T06:53:54.000Z,17.3
2023-01-17T06:55:04.777Z,17.4
2023-01-17T06:56:14.899Z,17.4
2023-01-17T06:57:25.019Z,17.4
2023-01-17T06:58:35.145Z,17.4
2023-01-17T06:59:45.244Z,17.4
2023-01-17T07:00:55.364Z,17.4
2023-01-17T07:03:15.605Z,17.5
2023-01-17T07:04:25.000Z,17.5
2023-01-17T07:05:35.846Z,17.5
2023-01-17T07:06:45.000Z,17.5
2023-01-17T07:07:56.072Z,17.5
2023-01-17T07:09:05.213Z,17.5
2023-01-17T07:10:15.326Z,17.6
2023-01-17T07:11:25.000Z,17.6
2023-01-17T07:12:35.554Z,17.6
2023-01-17T07:13:45.696Z,17.6
2023-01-17T07:14:55.000Z,17.6
2023-01-17T07:16:05.903Z,17.6
2023-01-17T07:17:16.025Z,17.7
2023-01-17T07:18:25.000Z,17.7
2023-01-17T07:19:34.294Z,17.7
2023-01-17T07:20:44.415Z,17.7
2023-01-17T07:21:54.532Z,17.7
2023-01-17T07:23:04.000Z,17.8
2023-01-17T07:24:14.771Z,17.8
2023-01-17T07:25:24.880Z,17.8
2023-01-17T07:26:34.997Z,17.8
2023-01-17T07:27:45.111Z,17.8
2023-01-17T07:28:55.238Z,17.8
2023-01-17T07:30:05.000Z,17.9
2023-01-17T07:31:15.000Z,17.9
2023-01-17T07:32:25.000Z,17.9
2023-01-17T07:33:35.710Z,17.9
2023-01-17T07:34:44.000Z,17.9
2023-01-17T07:35:54.000Z,17.9
2023-01-17T07:39:25.000Z,18
2023-01-17T07:40:34.475Z,18
2023-01-17T07:41:43.572Z,18
2023-01-17T07:42:53.704Z,18
2023-01-17T07:44:03.000Z,18
2023-01-17T07:45:13.933Z,18.1
2023-01-17T07:46:24.000Z,18.1
2023-01-17T07:47:34.171Z,18.1
2023-01-17T07:51:04.000Z,18.1
2023-01-17T07:52:14.627Z,18.1
2023-01-17T07:53:24.000Z,18.2
2023-01-17T07:54:34.873Z,18.2
2023-01-17T07:55:44.009Z,18.2
2023-01-17T07:56:53.000Z,18.2
2023-01-17T07:58:03.000Z,18.2
2023-01-17T07:59:13.377Z,18.2
2023-01-17T08:00:23.000Z,18.2
2023-01-17T08:01:33.000Z,18.2
2023-01-17T08:02:43.725Z,18.3
2023-01-17T08:03:53.848Z,18.3
2023-01-17T08:05:03.965Z,18.3
2023-01-17T08:06:14.000Z,18.3
2023-01-17T08:07:24.000Z,18.3
2023-01-17T08:08:33.000Z,18.3
2023-01-17T08:10:52.594Z,18.3
2023-01-17T08:12:02.705Z,18.4
2023-01-17T08:13:12.000Z,18.4
2023-01-17T08:14:22.000Z,18.4
2023-01-17T08:15:33.000Z,18.4
2023-01-17T08:16:43.177Z,18.4
2023-01-17T08:19:03.416Z,18.4
2023-01-17T08:20:13.000Z,18.4
2023-01-17T08:21:23.645Z,18.5
2023-01-17T08:22:33.768Z,18.5
2023-01-17T08:23:43.892Z,18.5
2023-01-17T08:24:53.022Z,18.5
2023-01-17T08:26:03.135Z,18.5
2023-01-17T08:27:13.257Z,18.5
2023-01-17T08:28:23.000Z,18.5
2023-01-17T08:29:33.000Z,18.5
2023-01-17T08:30:43.614Z,18.5
2023-01-17T08:31:53.726Z,18.6
2023-01-17T08:33:03.835Z,18.6
2023-01-17T08:34:13.964Z,18.6
2023-01-17T08:36:33.216Z,18.6
2023-01-17T08:37:42.000Z,18.6
2023-01-17T08:38:52.000Z,18.6
2023-01-17T08:40:02.584Z,18.6
2023-01-17T08:41:12.000Z,18.6
2023-01-17T08:42:22.000Z,18.6
2023-01-17T08:43:31.977Z,18.6
2023-01-17T08:44:41.000Z,18.7
2023-01-17T08:45:51.000Z,18.7
2023-01-17T08:48:11.455Z,18.7
2023-01-17T08:49:21.000Z,18.7
2023-01-17T08:50:31.684Z,18.7
2023-01-17T08:51:41.000Z,18.7
2023-01-17T08:52:51.918Z,18.7
2023-01-17T08:54:02.042Z,18.8
2023-01-17T08:55:12.000Z,18.7
2023-01-17T08:56:22.000Z,18.8
2023-01-17T08:57:32.000Z,18.8
2023-01-17T08:59:52.000Z,18.8
2023-01-17T09:02:11.000Z,18.8
2023-01-17T09:03:21.000Z,18.8
2023-01-17T09:04:30.000Z,18.8
2023-01-17T09:05:40.000Z,18.8
2023-01-17T09:06:50.000Z,18.8
2023-01-17T09:08:00.514Z,18.8
2023-01-17T09:09:10.000Z,18.8
2023-01-17T09:10:20.755Z,18.9
2023-01-17T09:11:30.896Z,18.9
2023-01-17T09:12:40.992Z,18.9
2023-01-17T09:13:51.000Z,18.9
2023-01-17T09:15:01.000Z,18.9
2023-01-17T09:16:10.000Z,18.9
2023-01-17T09:17:19.000Z,18.9
2023-01-17T09:18:29.635Z,18.9
2023-01-17T09:20:49.861Z,18.9
2023-01-17T09:23:10.088Z,18.9
2023-01-17T09:24:20.198Z,18.9
2023-01-17T09:25:29.000Z,18.9
2023-01-17T09:26:39.000Z,19
2023-01-17T09:27:49.573Z,19
2023-01-17T09:28:59.000Z,19
2023-01-17T09:30:09.817Z,19
2023-01-17T09:31:18.000Z,19
2023-01-17T09:32:28.145Z,19
2023-01-17T09:34:48.328Z,19
2023-01-17T09:35:58.000Z,19
2023-01-17T09:37:08.555Z,19
2023-01-17T09:38:18.000Z,19
2023-01-17T09:39:28.000Z,19.1
2023-01-17T09:40:38.908Z,19
2023-01-17T09:41:49.000Z,19.1
2023-01-17T09:42:59.000Z,19
2023-01-17T09:44:09.000Z,19.1
2023-01-17T09:46:29.000Z,19.1
2023-01-17T09:47:38.000Z,19.1
2023-01-17T09:48:47.772Z,19.1
2023-01-17T09:49:57.000Z,19.1
2023-01-17T09:51:08.000Z,19.1
2023-01-17T09:52:18.000Z,19.1
2023-01-17T09:53:28.000Z,19.1
2023-01-17T09:54:38.000Z,19.1
2023-01-17T09:55:48.492Z,19.1
2023-01-17T09:59:18.000Z,19.2
2023-01-17T10:00:28.000Z,19.2
2023-01-17T10:01:39.000Z,19.2
2023-01-17T10:02:49.186Z,19.2
2023-01-17T10:03:58.000Z,19.2
2023-01-17T10:05:08.000Z,19.2
2023-01-17T10:06:18.000Z,19.2
2023-01-17T10:07:28.000Z,19.2
2023-01-17T10:08:38.788Z,19.2
2023-01-17T10:09:48.000Z,19.2
2023-01-17T10:10:59.000Z,19.2
2023-01-17T10:13:19.254Z,19.2
2023-01-17T10:14:29.000Z,19.2
2023-01-17T10:15:39.495Z,19.2
2023-01-17T10:16:49.610Z,19.2
2023-01-17T10:17:59.000Z,19.2
2023-01-17T10:20:18.000Z,19.3
2023-01-17T10:21:29.090Z,19.3
2023-01-17T10:22:39.212Z,19.3
2023-01-17T10:23:49.000Z,19.3
2023-01-17T10:24:59.000Z,19.3
2023-01-17T10:26:09.000Z,19.3
2023-01-17T10:27:19.000Z,19.3
2023-01-17T10:28:29.000Z,19.3
2023-01-17T10:29:39.000Z,19.3
2023-01-17T10:30:50.000Z,19.3
2023-01-17T10:33:10.000Z,19.3
2023-01-17T10:34:19.000Z,19.3
2023-01-17T10:35:29.000Z,19.3
2023-01-17T10:36:39.000Z,19.3
2023-01-17T10:37:49.750Z,19.3
2023-01-17T10:38:59.865Z,19.3
2023-01-17T10:40:09.000Z,19.3
2023-01-17T10:41:20.000Z,19.3
2023-01-17T10:42:30.000Z,19.3
2023-01-17T10:43:40.000Z,19.3
2023-01-17T10:44:49.000Z,19.4
2023-01-17T10:45:58.000Z,19.4
2023-01-17T10:47:08.000Z,19.4
2023-01-17T10:48:18.000Z,19.4
2023-01-17T10:49:28.000Z,19.4
2023-01-17T10:50:39.000Z,19.4
2023-01-17T10:51:49.000Z,19.4
2023-01-17T10:52:59.000Z,19.4
2023-01-17T10:54:09.000Z,19.4
2023-01-17T10:55:19.000Z,19.4
2023-01-17T10:56:29.000Z,19.4
2023-01-17T10:57:38.000Z,19.4
2023-01-17T10:58:48.000Z,19.4
2023-01-17T10:59:58.061Z,19.4
2023-01-17T11:01:08.192Z,19.4
2023-01-17T11:02:18.303Z,19.4
2023-01-17T11:03:28.000Z,19.4
2023-01-17T11:04:38.000Z,19.4
2023-01-17T11:05:48.650Z,19.4
2023-01-17T11:06:58.000Z,19.4
2023-01-17T11:08:08.000Z,19.4
2023-01-17T11:09:19.000Z,19.5
2023-01-17T11:10:29.116Z,19.5
2023-01-17T11:11:39.000Z,19.5
2023-01-17T11:12:49.000Z,19.5
2023-01-17T11:13:59.470Z,19.5
2023-01-17T11:15:08.000Z,19.5
2023-01-17T11:16:18.736Z,19.5
2023-01-17T11:17:28.834Z,19.5
2023-01-17T11:18:38.962Z,19.5
2023-01-17T11:19:49.000Z,19.5
2023-01-17T11:20:59.000Z,19.5
2023-01-17T11:22:09.000Z,19.5
2023-01-17T11:23:19.421Z,19.5
2023-01-17T11:24:29.540Z,19.5
2023-01-17T11:25:39.660Z,19.5
2023-01-17T11:26:49.000Z,19.5
2023-01-17T11:27:59.893Z,19.5
2023-01-17T11:29:10.000Z,19.5
2023-01-17T11:30:19.145Z,19.5
2023-01-17T11:31:29.267Z,19.5
2023-01-17T11:32:39.000Z,19.5
2023-01-17T11:33:49.000Z,19.5
2023-01-17T11:34:59.613Z,19.5
2023-01-17T11:36:09.000Z,19.6
2023-01-17T11:37:19.000Z,19.6
2023-01-17T11:38:29.000Z,19.6
2023-01-17T11:39:40.000Z,19.6
2023-01-17T11:40:50.201Z,19.6
2023-01-17T11:44:20.547Z,19.6
2023-01-17T11:45:29.699Z,19.6
2023-01-17T11:46:39.000Z,19.6
2023-01-17T11:47:49.000Z,19.6
2023-01-17T11:49:00.000Z,19.6
2023-01-17T11:50:10.000Z,19.6
2023-01-17T11:51:20.268Z,19.6
2023-01-17T11:52:30.000Z,19.6
2023-01-17T11:53:40.000Z,19.6
2023-01-17T11:54:50.000Z,19.6
2023-01-17T11:56:00.000Z,19.6
2023-01-17T11:57:10.856Z,19.6
2023-01-17T11:58:20.000Z,19.6
2023-01-17T11:59:31.000Z,19.6
2023-01-17T12:00:40.226Z,19.6
2023-01-17T12:01:50.344Z,19.6
2023-01-17T12:03:00.000Z,19.6
2023-01-17T12:04:10.577Z,19.6
2023-01-17T12:05:20.694Z,19.6
2023-01-17T12:06:30.815Z,19.6
2023-01-17T12:07:40.000Z,19.6
2023-01-17T12:08:51.000Z,19.6
2023-01-17T12:10:01.000Z,19.6
2023-01-17T12:11:11.000Z,19.7
2023-01-17T12:12:21.000Z,19.7
2023-01-17T12:13:31.514Z,19.7
2023-01-17T12:14:41.000Z,19.7
2023-01-17T12:15:50.000Z,19.7
2023-01-17T12:18:11.000Z,19.7
2023-01-17T12:19:21.119Z,19.7
2023-01-17T12:20:31.000Z,19.7
2023-01-17T12:21:41.000Z,19.7
2023-01-17T12:22:51.000Z,19.7
2023-01-17T12:24:01.000Z,19.7
2023-01-17T12:25:11.000Z,19.7
2023-01-17T12:26:21.822Z,19.7
2023-01-17T12:27:31.000Z,19.8
2023-01-17T12:28:42.000Z,19.8
2023-01-17T12:29:52.000Z,19.8
2023-01-17T12:31:01.315Z,19.8
2023-01-17T12:32:11.000Z,19.8
2023-01-17T12:33:21.000Z,19.8
2023-01-17T12:34:31.660Z,19.8
2023-01-17T12:35:41.000Z,19.8
2023-01-17T12:36:51.000Z,19.8
2023-01-17T12:38:02.012Z,19.8
2023-01-17T12:39:12.000Z,19.8
2023-01-17T12:40:22.000Z,19.8
2023-01-17T12:41:32.000Z,19.8
2023-01-17T12:42:42.000Z,19.8
2023-01-17T12:43:52.000Z,19.8
2023-01-17T12:45:02.000Z,19.8
2023-01-17T12:46:11.853Z,19.8
2023-01-17T12:47:21.000Z,19.8
2023-01-17T12:48:32.000Z,19.8
2023-01-17T12:49:42.000Z,19.8
2023-01-17T12:50:52.324Z,19.8
2023-01-17T12:52:02.456Z,19.8
2023-01-17T12:53:12.000Z,19.8
2023-01-17T12:54:22.000Z,19.8
2023-01-17T12:55:32.793Z,19.8
2023-01-17T12:56:42.915Z,19.8
2023-01-17T12:57:53.000Z,19.8
2023-01-17T12:59:03.143Z,19.9
2023-01-17T13:00:13.000Z,19.8
2023-01-17T13:01:22.000Z,19.9
2023-01-17T13:02:32.512Z,19.9
2023-01-17T13:04:52.750Z,19.9
2023-01-17T13:06:02.000Z,19.9
2023-01-17T13:07:12.980Z,19.9
2023-01-17T13:08:23.000Z,19.9
2023-01-17T13:09:33.228Z,19.9
2023-01-17T13:10:43.329Z,19.9
2023-01-17T13:11:53.452Z,19.9
2023-01-17T13:13:03.000Z,19.9
2023-01-17T13:14:13.000Z,19.9
2023-01-17T13:15:23.000Z,19.9
2023-01-17T13:16:32.936Z,19.9
2023-01-17T13:17:43.059Z,20
2023-01-17T13:18:53.000Z,20
2023-01-17T13:20:02.309Z,20
2023-01-17T13:21:12.422Z,20
2023-01-17T13:22:22.000Z,20
2023-01-17T13:23:32.657Z,20
2023-01-17T13:24:42.000Z,20
2023-01-17T13:25:52.900Z,20
2023-01-17T13:27:03.000Z,20
2023-01-17T13:29:23.262Z,20
2023-01-17T13:30:33.367Z,20.1
2023-01-17T13:31:43.488Z,20.1
2023-01-17T13:32:53.601Z,20.1
2023-01-17T13:34:03.712Z,20.1
2023-01-17T13:35:12.850Z,20.1
2023-01-17T13:36:22.000Z,20.1
2023-01-17T13:37:33.000Z,20.1
2023-01-17T13:39:53.000Z,20.1
2023-01-17T13:41:03.431Z,20.1
2023-01-17T13:42:13.567Z,20.1
2023-01-17T13:43:23.000Z,20.1
2023-01-17T13:44:33.785Z,20.1
2023-01-17T13:45:43.000Z,20.2
2023-01-17T13:46:54.000Z,20.2
2023-01-17T13:48:04.000Z,20.2
2023-01-17T13:49:14.261Z,20.2
2023-01-17T13:50:23.397Z,20.2
2023-01-17T13:51:33.514Z,20.2
2023-01-17T13:52:43.000Z,20.2
2023-01-17T13:53:53.000Z,20.2
2023-01-17T13:55:03.000Z,20.2
2023-01-17T13:56:13.000Z,20.2
2023-01-17T13:57:24.000Z,20.2
2023-01-17T13:58:34.000Z,20.3
2023-01-17T13:59:44.000Z,20.2
2023-01-17T14:00:54.444Z,20.2
2023-01-17T14:04:24.808Z,20.2
2023-01-17T14:05:33.924Z,20.2
2023-01-17T14:06:44.060Z,20.2
2023-01-17T14:07:54.159Z,20.2
2023-01-17T14:09:04.278Z,20.2
2023-01-17T14:10:14.392Z,20.2
2023-01-17T14:11:24.000Z,20.2
2023-01-17T14:12:34.000Z,20.2
2023-01-17T14:13:44.761Z,20.2
2023-01-17T14:14:54.865Z,20.2
2023-01-17T14:16:04.980Z,20.2
2023-01-17T14:17:15.000Z,20.2
2023-01-17T14:18:25.000Z,20.2
2023-01-17T14:19:35.000Z,20.2
2023-01-17T14:20:44.000Z,20.2
2023-01-17T14:23:04.000Z,20.2
2023-01-17T14:24:13.000Z,20.2
2023-01-17T14:26:33.000Z,20.2
2023-01-17T14:27:43.217Z,20.2
2023-01-17T14:28:53.338Z,20.2
2023-01-17T14:30:03.000Z,20.2
2023-01-17T14:31:13.575Z,20.2
2023-01-17T14:32:23.689Z,20.2
2023-01-17T14:33:33.000Z,20.2
2023-01-17T14:34:43.928Z,20.2
2023-01-17T14:35:54.000Z,20.2
2023-01-17T14:38:14.000Z,20.2
2023-01-17T14:39:24.000Z,20.2
2023-01-17T14:40:33.518Z,20.2
2023-01-17T14:41:43.000Z,20.2
2023-01-17T14:44:03.873Z,20.2
2023-01-17T14:45:13.000Z,20.2
2023-01-17T14:46:22.000Z,20.2
2023-01-17T14:47:32.000Z,20.2
2023-01-17T14:48:42.000Z,20.2
2023-01-17T14:49:52.000Z,20.2
2023-01-17T14:51:02.000Z,20.2
2023-01-17T14:52:12.000Z,20.2
2023-01-17T14:53:22.847Z,20.2
2023-01-17T14:54:32.975Z,20.2
2023-01-17T14:55:43.000Z,20.2
2023-01-17T14:56:53.000Z,20.2
2023-01-17T14:58:02.000Z,20.2
2023-01-17T14:59:11.000Z,20.2
2023-01-17T15:01:31.711Z,20.2
2023-01-17T15:02:41.000Z,20.2
2023-01-17T15:03:51.945Z,20.2
2023-01-17T15:05:02.070Z,20.2
2023-01-17T15:07:22.296Z,20.2
2023-01-17T15:08:32.000Z,20.2
2023-01-17T15:09:42.532Z,20.2
2023-01-17T15:12:02.781Z,20.2
2023-01-17T15:13:12.000Z,20.2
2023-01-17T15:14:22.000Z,20.2
2023-01-17T15:15:31.000Z,20.2
2023-01-17T15:16:41.000Z,20.2
2023-01-17T15:17:51.403Z,20.2
2023-01-17T15:19:01.000Z,20.2
2023-01-17T15:20:11.628Z,20.2
2023-01-17T15:21:21.000Z,20.2
2023-01-17T15:22:31.871Z,20.2
2023-01-17T15:24:52.096Z,20.2
2023-01-17T15:26:02.225Z,20.2
2023-01-17T15:27:12.000Z,20.2
2023-01-17T15:28:22.000Z,20.2
2023-01-17T15:29:32.000Z,20.2
2023-01-17T15:30:41.000Z,20.2
2023-01-17T15:31:51.000Z,20.2
2023-01-17T15:33:01.937Z,20.2
2023-01-17T15:34:12.000Z,20.2
2023-01-17T15:35:22.000Z,20.2
2023-01-17T15:36:32.000Z,20.2
2023-01-17T15:37:42.000Z,20.2
2023-01-17T15:38:52.000Z,20.2
2023-01-17T15:40:01.661Z,20.2
2023-01-17T15:41:10.000Z,20.2
2023-01-17T15:42:20.000Z,20.2
2023-01-17T15:43:31.000Z,20.2
2023-01-17T15:44:41.000Z,20.2
2023-01-17T15:45:51.270Z,20.2
2023-01-17T15:47:01.000Z,20.2
2023-01-17T15:48:11.000Z,20.2
2023-01-17T15:49:21.000Z,20.2
2023-01-17T15:50:31.000Z,20.2
2023-01-17T15:51:41.000Z,20.2
2023-01-17T15:54:01.000Z,20.2
2023-01-17T15:56:20.362Z,20.2
2023-01-17T15:57:29.512Z,20.2
2023-01-17T15:58:38.643Z,20.2
2023-01-17T15:59:48.756Z,20.2
2023-01-17T16:00:58.872Z,20.2
2023-01-17T16:02:08.000Z,20.2
2023-01-17T16:03:19.113Z,20.2
2023-01-17T16:04:29.000Z,20.2
2023-01-17T16:05:39.000Z,20.2
2023-01-17T16:06:49.459Z,20.2
2023-01-17T16:07:59.578Z,20.2
2023-01-17T16:09:09.000Z,20.2
2023-01-17T16:10:18.000Z,20.2
2023-01-17T16:11:27.977Z,20.2
2023-01-17T16:12:38.000Z,20.2
2023-01-17T16:13:48.000Z,20.2
2023-01-17T16:14:58.325Z,20.2
2023-01-17T16:16:08.000Z,20.2
2023-01-17T16:17:18.556Z,20.2
2023-01-17T16:18:28.000Z,20.2
2023-01-17T16:19:38.792Z,20.2
2023-01-17T16:20:48.919Z,20.2
2023-01-17T16:21:59.031Z,20.2
2023-01-17T16:23:08.000Z,20.2
2023-01-17T16:24:17.000Z,20.2
2023-01-17T16:25:27.422Z,20.2
2023-01-17T16:26:37.000Z,20.2
2023-01-17T16:27:47.000Z,20.2
2023-01-17T16:28:57.777Z,20.2
2023-01-17T16:30:07.900Z,20.2
2023-01-17T16:31:18.009Z,20.2
2023-01-17T16:32:28.139Z,20.2
2023-01-17T16:34:48.000Z,20.2
2023-01-17T16:35:58.000Z,20.2
2023-01-17T16:37:08.000Z,20.2
2023-01-17T16:38:18.000Z,20.2
2023-01-17T16:39:27.848Z,20.2
2023-01-17T16:40:37.000Z,20.2
2023-01-17T16:41:48.000Z,20.2
2023-01-17T16:42:58.195Z,20.2
2023-01-17T16:44:08.000Z,20.2
2023-01-17T16:45:18.000Z,20.2
2023-01-17T16:46:28.000Z,20.2
2023-01-17T16:47:38.671Z,20.2
2023-01-17T16:48:48.785Z,20.2
2023-01-17T16:49:58.000Z,20.2
2023-01-17T16:52:19.152Z,20.2
2023-01-17T16:53:29.000Z,20.2
2023-01-17T16:54:38.000Z,20.2
2023-01-17T16:55:48.000Z,20.2
2023-01-17T16:58:08.000Z,20.2
2023-01-17T16:59:17.000Z,20.2
2023-01-17T17:00:27.000Z,20.2
2023-01-17T17:01:37.000Z,20.2
2023-01-17T17:02:47.000Z,20.2
2023-01-17T17:03:57.000Z,20.2
2023-01-17T17:05:07.484Z,20.2
2023-01-17T17:06:17.000Z,20.2